createdAt,value
2022-12-11T00:01:57.837Z,32.60
2022-12-11T00:04:24.263Z,32.17
2022-12-11T00:06:50.668Z,32.85
2022-12-11T00:09:17.549Z,31.70
2022-12-11T00:11:44.041Z,33.28
2022-12-11T00:14:10.521Z,34.70
2022-12-11T00:16:36.784Z,32.40
2022-12-11T00:19:03.226Z,33.70
2022-12-11T00:21:29.625Z,32.33
2022-12-11T00:23:55.938Z,34.38
2022-12-11T00:26:22.509Z,33.28
2022-12-11T00:28:51.958Z,33.60
2022-12-11T00:31:18.977Z,35.67
2022-12-11T00:33:45.314Z,31.63
2022-12-11T00:36:16.122Z,31.52
2022-12-11T00:38:42.983Z,31.10
2022-12-11T00:41:09.523Z,33.17
2022-12-11T00:43:35.842Z,31.48
2022-12-11T00:46:02.256Z,32.22
2022-12-11T00:48:28.603Z,31.95
2022-12-11T00:50:54.918Z,34.00
2022-12-11T00:53:21.402Z,32.30
2022-12-11T00:55:47.698Z,32.53
2022-12-11T00:58:14.020Z,33.88
2022-12-11T01:00:40.722Z,34.55
2022-12-11T01:03:07.249Z,31.92
2022-12-11T01:05:34.059Z,33.30
2022-12-11T01:08:00.508Z,34.35
2022-12-11T01:10:27.110Z,33.85
2022-12-11T01:12:55.191Z,35.78
2022-12-11T01:15:22.973Z,36.90
2022-12-11T01:17:52.159Z,37.22
2022-12-11T01:20:19.472Z,36.60
2022-12-11T01:22:45.713Z,34.92
2022-12-11T01:25:12.184Z,36.63
2022-12-11T01:27:39.016Z,36.67
2022-12-11T01:30:07.424Z,38.10
2022-12-11T01:32:34.011Z,36.53
2022-12-11T01:35:00.420Z,36.33
2022-12-11T01:37:26.654Z,36.22
2022-12-11T01:39:52.985Z,36.30
2022-12-11T01:42:20.234Z,35.90
2022-12-11T01:44:46.518Z,35.80
2022-12-11T01:47:12.846Z,37.67
2022-12-11T01:49:40.069Z,37.05
2022-12-11T01:52:08.120Z,35.97
2022-12-11T01:54:34.567Z,33.67
2022-12-11T01:57:02.675Z,36.08
2022-12-11T01:59:30.966Z,33.15
2022-12-11T02:01:59.518Z,35.55
2022-12-11T02:04:25.939Z,35.17
2022-12-11T02:06:53.048Z,35.53
2022-12-11T02:09:21.977Z,35.42
2022-12-11T02:12:06.773Z,37.10
2022-12-11T02:14:45.288Z,34.58
2022-12-11T02:17:18.796Z,34.88
2022-12-11T02:19:52.960Z,35.53
2022-12-11T02:22:42.258Z,37.25
2022-12-11T02:25:11.813Z,34.88
2022-12-11T02:27:50.334Z,35.97
2022-12-11T02:30:16.941Z,35.50
2022-12-11T02:32:48.906Z,36.78
2022-12-11T02:35:18.534Z,33.63
2022-12-11T02:37:46.459Z,34.33
2022-12-11T02:40:14.353Z,35.28
2022-12-11T02:42:42.346Z,33.15
2022-12-11T02:45:09.669Z,34.55
2022-12-11T02:47:37.108Z,34.40
2022-12-11T02:50:07.276Z,32.97
2022-12-11T02:52:34.653Z,32.80
2022-12-11T02:55:01.548Z,32.00
2022-12-11T02:57:31.261Z,32.40
2022-12-11T02:59:57.617Z,33.08
2022-12-11T03:02:24.020Z,32.63
2022-12-11T03:04:50.335Z,33.53
2022-12-11T03:07:23.283Z,32.22
2022-12-11T03:09:50.178Z,33.85
2022-12-11T03:12:18.864Z,31.58
2022-12-11T03:14:45.289Z,33.15
2022-12-11T03:17:21.109Z,32.83
2022-12-11T03:19:47.382Z,32.03
2022-12-11T03:22:19.031Z,34.35
2022-12-11T03:24:53.039Z,32.42
2022-12-11T03:27:19.346Z,31.52
2022-12-11T03:29:53.960Z,32.65
2022-12-11T03:32:23.102Z,32.35
2022-12-11T03:34:49.332Z,33.10
2022-12-11T03:37:16.620Z,32.88
2022-12-11T03:39:44.877Z,31.20
2022-12-11T03:42:13.171Z,32.50
2022-12-11T03:44:40.284Z,32.67
2022-12-11T03:47:07.990Z,31.17
2022-12-11T03:49:36.782Z,32.65
2022-12-11T03:52:03.988Z,30.17
2022-12-11T03:54:30.971Z,30.10
2022-12-11T03:56:59.224Z,27.98
2022-12-11T03:59:25.537Z,27.35
2022-12-11T04:01:51.880Z,28.33
2022-12-11T04:04:18.403Z,25.10
2022-12-11T04:06:44.714Z,23.98
2022-12-11T04:09:11.161Z,26.05
2022-12-11T04:11:37.638Z,26.05
2022-12-11T04:14:27.298Z,24.15
2022-12-11T04:16:53.589Z,21.55
2022-12-11T04:19:38.902Z,21.88
2022-12-11T04:22:23.625Z,21.88
2022-12-11T04:24:50.259Z,21.75
2022-12-11T04:27:37.180Z,22.85
2022-12-11T04:30:04.819Z,21.88
2022-12-11T04:32:31.112Z,21.63
2022-12-11T04:34:57.346Z,20.63
2022-12-11T04:37:23.740Z,20.23
2022-12-11T04:39:50.140Z,20.85
2022-12-11T04:42:16.517Z,20.48
2022-12-11T04:44:42.807Z,20.42
2022-12-11T04:47:09.130Z,23.15
2022-12-11T04:49:35.420Z,21.80
2022-12-11T04:52:01.814Z,23.67
2022-12-11T04:54:29.719Z,23.42
2022-12-11T04:56:56.022Z,23.08
2022-12-11T04:59:22.285Z,23.70
2022-12-11T05:01:48.661Z,23.77
2022-12-11T05:04:15.030Z,22.77
2022-12-11T05:06:41.403Z,22.23
2022-12-11T05:09:10.981Z,22.05
2022-12-11T05:11:37.652Z,21.73
2022-12-11T05:14:04.362Z,22.65
2022-12-11T05:16:30.739Z,22.25
2022-12-11T05:18:57.018Z,22.13
2022-12-11T05:21:23.365Z,21.60
2022-12-11T05:23:49.636Z,21.60
2022-12-11T05:26:17.140Z,21.17
2022-12-11T05:28:43.787Z,20.73
2022-12-11T05:31:13.062Z,20.67
2022-12-11T05:33:39.557Z,19.80
2022-12-11T05:36:06.457Z,21.08
2022-12-11T05:38:32.784Z,22.65
2022-12-11T05:41:00.575Z,20.63
2022-12-11T05:43:27.803Z,20.30
2022-12-11T05:45:54.402Z,22.60
2022-12-11T05:48:20.726Z,20.15
2022-12-11T05:50:56.779Z,20.55
2022-12-11T05:53:23.073Z,23.33
2022-12-11T05:55:49.464Z,21.83
2022-12-11T05:58:15.802Z,22.58
2022-12-11T06:00:42.450Z,21.48
2022-12-11T06:03:08.803Z,23.30
2022-12-11T06:05:38.702Z,24.42
2022-12-11T06:08:05.153Z,23.50
2022-12-11T06:10:31.491Z,24.85
2022-12-11T06:12:57.722Z,23.52
2022-12-11T06:15:24.054Z,24.55
2022-12-11T06:17:50.309Z,23.30
2022-12-11T06:20:16.634Z,24.58
2022-12-11T06:22:42.956Z,23.98
2022-12-11T06:25:09.894Z,25.42
2022-12-11T06:27:36.356Z,24.20
2022-12-11T06:30:02.738Z,23.45
2022-12-11T06:32:29.025Z,23.05
2022-12-11T06:34:55.425Z,22.52
2022-12-11T06:37:21.730Z,24.30
2022-12-11T06:39:47.957Z,24.85
2022-12-11T06:42:14.246Z,24.63
2022-12-11T06:44:40.529Z,24.73
2022-12-11T06:47:06.844Z,25.33
2022-12-11T06:49:33.334Z,25.00
2022-12-11T06:51:59.603Z,26.17
2022-12-11T06:54:27.057Z,25.83
2022-12-11T06:56:53.284Z,27.63
2022-12-11T06:59:19.519Z,27.40
2022-12-11T07:01:45.814Z,26.73
2022-12-11T07:04:12.041Z,28.52
2022-12-11T07:06:38.262Z,28.33
2022-12-11T07:09:05.206Z,28.15
2022-12-11T07:11:31.488Z,26.45
2022-12-11T07:14:00.717Z,25.35
2022-12-11T07:16:27.621Z,26.38
2022-12-11T07:18:53.925Z,24.55
2022-12-11T07:21:20.660Z,26.20
2022-12-11T07:23:47.109Z,24.63
2022-12-11T07:26:14.853Z,25.80
2022-12-11T07:28:41.504Z,24.33
2022-12-11T07:31:18.281Z,24.38
2022-12-11T07:33:44.977Z,23.52
2022-12-11T07:36:12.489Z,25.40
2022-12-11T07:38:38.854Z,25.90
2022-12-11T07:41:06.396Z,25.17
2022-12-11T07:43:33.210Z,26.85
2022-12-11T07:46:06.668Z,25.92
2022-12-11T07:48:34.941Z,25.88
2022-12-11T07:51:28.072Z,26.40
2022-12-11T07:53:59.458Z,26.02
2022-12-11T07:56:25.990Z,27.15
2022-12-11T07:58:52.272Z,28.88
2022-12-11T08:01:20.142Z,26.77
2022-12-11T08:03:46.603Z,27.65
2022-12-11T08:06:12.861Z,28.27
2022-12-11T08:08:39.829Z,27.13
2022-12-11T08:11:07.055Z,28.55
2022-12-11T08:13:33.414Z,28.33
2022-12-11T08:16:02.777Z,26.13
2022-12-11T08:18:30.312Z,26.55
2022-12-11T08:20:56.592Z,25.48
2022-12-11T08:23:22.830Z,26.67
2022-12-11T08:25:49.125Z,27.52
2022-12-11T08:28:15.421Z,25.75
2022-12-11T08:30:41.753Z,24.08
2022-12-11T08:33:08.018Z,23.98
2022-12-11T08:35:38.039Z,23.13
2022-12-11T08:38:04.335Z,22.73
2022-12-11T08:40:30.662Z,22.42
2022-12-11T08:42:57.022Z,21.67
2022-12-11T08:45:23.319Z,22.75
2022-12-11T08:47:49.635Z,22.48
2022-12-11T08:50:15.861Z,21.42
2022-12-11T08:52:42.205Z,24.10
2022-12-11T08:55:08.879Z,22.48
2022-12-11T08:57:35.336Z,22.83
2022-12-11T09:00:01.604Z,22.65
2022-12-11T09:02:27.975Z,23.02
2022-12-11T09:04:54.310Z,23.25
2022-12-11T09:07:20.613Z,22.05
2022-12-11T09:09:46.854Z,22.90
2022-12-11T09:12:13.864Z,23.50
2022-12-11T09:14:40.213Z,22.60
2022-12-11T09:17:06.515Z,23.10
2022-12-11T09:19:32.818Z,23.45
2022-12-11T09:21:59.237Z,23.33
2022-12-11T09:24:25.532Z,25.08
2022-12-11T09:26:51.781Z,26.15
2022-12-11T09:29:18.211Z,24.63
2022-12-11T09:31:44.567Z,22.98
2022-12-11T09:34:11.833Z,23.65
2022-12-11T09:36:39.116Z,24.23
2022-12-11T09:39:06.434Z,23.40
2022-12-11T09:41:35.851Z,22.55
2022-12-11T09:44:22.955Z,23.60
2022-12-11T09:46:50.823Z,23.90
2022-12-11T09:49:23.239Z,24.00
2022-12-11T09:52:00.502Z,24.77
2022-12-11T09:54:26.951Z,23.13
2022-12-11T09:57:05.071Z,24.23
2022-12-11T09:59:44.310Z,23.88
2022-12-11T10:02:17.662Z,27.65
2022-12-11T10:04:46.738Z,25.52
2022-12-11T10:07:13.205Z,25.58
2022-12-11T10:09:51.589Z,23.30
2022-12-11T10:12:47.041Z,29.77
2022-12-11T10:15:25.329Z,25.20
2022-12-11T10:17:53.805Z,23.25
2022-12-11T10:20:20.624Z,25.98
2022-12-11T10:22:48.260Z,23.38
2022-12-11T10:25:20.202Z,21.88
2022-12-11T10:27:46.532Z,21.48
2022-12-11T10:30:12.893Z,21.10
2022-12-11T10:32:44.930Z,21.90
2022-12-11T10:35:18.006Z,23.02
2022-12-11T10:37:44.286Z,20.42
2022-12-11T10:40:11.639Z,20.83
2022-12-11T10:42:42.581Z,20.52
2022-12-11T10:45:16.026Z,20.42
2022-12-11T10:47:42.327Z,20.60
2022-12-11T10:50:22.608Z,19.90
2022-12-11T10:52:48.850Z,19.73
2022-12-11T10:55:22.622Z,20.08
2022-12-11T10:57:56.986Z,20.65
2022-12-11T11:00:34.336Z,33.92
2022-12-11T11:03:01.744Z,27.40
2022-12-11T11:05:34.547Z,18.85
2022-12-11T11:08:03.684Z,20.65
2022-12-11T11:10:30.091Z,21.48
2022-12-11T11:13:00.444Z,20.60
2022-12-11T11:15:27.925Z,21.92
2022-12-11T11:17:56.141Z,18.00
2022-12-11T11:20:26.951Z,19.38
2022-12-11T11:22:57.564Z,19.80
2022-12-11T11:25:28.547Z,18.92
2022-12-11T11:27:59.940Z,18.75
2022-12-11T11:30:34.445Z,18.95
2022-12-11T11:33:05.286Z,19.23
2022-12-11T11:35:31.946Z,17.95
2022-12-11T11:38:02.259Z,17.92
2022-12-11T11:40:36.675Z,18.63
2022-12-11T11:43:22.501Z,18.45
2022-12-11T11:46:07.210Z,17.25
2022-12-11T11:48:34.116Z,18.23
2022-12-11T11:51:06.020Z,18.40
2022-12-11T11:53:37.959Z,18.55
2022-12-11T11:56:21.312Z,17.10
2022-12-11T11:58:50.662Z,17.92
2022-12-11T12:01:18.741Z,17.20
2022-12-11T12:03:52.150Z,17.35
2022-12-11T12:06:21.454Z,16.27
2022-12-11T12:08:57.899Z,16.70
2022-12-11T12:11:43.012Z,16.95
2022-12-11T12:17:23.652Z,17.38
2022-12-11T12:20:08.660Z,17.65
2022-12-11T12:22:40.943Z,18.20
2022-12-11T12:25:26.749Z,19.10
2022-12-11T12:27:59.420Z,17.77
2022-12-11T12:30:26.876Z,18.17
2022-12-11T12:32:53.142Z,17.88
2022-12-11T12:35:29.882Z,16.00
2022-12-11T12:37:58.436Z,18.48
2022-12-11T12:40:24.739Z,18.17
2022-12-11T12:43:03.077Z,19.33
2022-12-11T12:45:37.128Z,17.92
2022-12-11T12:48:03.420Z,17.85
2022-12-11T12:50:37.100Z,17.40
2022-12-11T12:53:04.734Z,18.90
2022-12-11T12:55:31.936Z,16.75
2022-12-11T12:58:00.494Z,18.02
2022-12-11T13:00:40.104Z,18.73
2022-12-11T13:03:23.061Z,20.50
2022-12-11T13:05:55.099Z,20.23
2022-12-11T13:08:24.831Z,19.30
2022-12-11T13:10:58.403Z,20.70
2022-12-11T13:13:29.530Z,19.65
2022-12-11T13:16:05.450Z,20.50
2022-12-11T13:18:35.055Z,19.13
2022-12-11T13:21:02.060Z,20.58
2022-12-11T13:23:29.915Z,22.20
2022-12-11T13:25:58.172Z,21.88
2022-12-11T13:28:33.356Z,21.42
2022-12-11T13:31:14.909Z,21.48
2022-12-11T13:33:51.747Z,21.90
2022-12-11T13:36:25.022Z,22.52
2022-12-11T13:39:11.730Z,22.13
2022-12-11T13:41:38.271Z,22.13
2022-12-11T13:44:05.066Z,23.48
2022-12-11T13:46:33.754Z,22.15
2022-12-11T13:49:02.287Z,21.75
2022-12-11T13:51:29.748Z,25.02
2022-12-11T13:54:04.940Z,23.92
2022-12-11T13:56:31.225Z,22.45
2022-12-11T13:58:57.579Z,23.55
2022-12-11T14:01:27.346Z,22.77
2022-12-11T14:03:55.350Z,22.63
2022-12-11T14:06:22.412Z,22.55
2022-12-11T14:08:50.101Z,23.35
2022-12-11T14:11:24.820Z,23.30
2022-12-11T14:13:51.114Z,24.15
2022-12-11T14:16:21.832Z,25.08
2022-12-11T14:21:21.995Z,22.77
2022-12-11T14:23:52.269Z,23.60
2022-12-11T14:26:23.185Z,23.63
2022-12-11T14:28:49.470Z,23.33
2022-12-11T14:31:18.640Z,24.58
2022-12-11T14:33:48.128Z,24.85
2022-12-11T14:36:15.510Z,25.88
2022-12-11T14:38:47.225Z,26.58
2022-12-11T14:41:16.527Z,26.38
2022-12-11T14:43:44.373Z,25.35
2022-12-11T14:46:15.460Z,24.60
2022-12-11T14:48:47.953Z,26.50
2022-12-11T14:51:15.941Z,23.92
2022-12-11T14:53:44.082Z,27.60
2022-12-11T14:56:16.163Z,25.65
2022-12-11T14:58:45.643Z,24.45
2022-12-11T15:01:22.341Z,35.28
2022-12-11T15:03:48.781Z,27.42
2022-12-11T15:06:35.157Z,29.25
2022-12-11T15:09:21.087Z,25.27
2022-12-11T15:11:48.863Z,21.85
2022-12-11T15:14:16.238Z,25.55
2022-12-11T15:16:42.680Z,25.13
2022-12-11T15:19:18.156Z,24.27
2022-12-11T15:21:44.419Z,23.67
2022-12-11T15:24:22.364Z,23.67
2022-12-11T15:26:48.664Z,23.90
2022-12-11T15:29:44.180Z,22.73
2022-12-11T15:32:14.066Z,24.15
2022-12-11T15:34:44.310Z,24.50
2022-12-11T15:37:17.369Z,24.90
2022-12-11T15:39:43.678Z,25.45
2022-12-11T15:42:11.440Z,24.48
2022-12-11T15:44:37.675Z,25.10
2022-12-11T15:47:14.313Z,28.83
2022-12-11T15:49:40.744Z,34.00
2022-12-11T15:52:07.057Z,27.20
2022-12-11T15:54:33.339Z,25.98
2022-12-11T15:57:01.520Z,26.60
2022-12-11T15:59:27.802Z,23.92
2022-12-11T16:01:54.132Z,23.90
2022-12-11T16:04:20.620Z,25.55
2022-12-11T16:06:46.882Z,24.98
2022-12-11T16:09:13.158Z,24.98
2022-12-11T16:11:39.424Z,25.05
2022-12-11T16:14:05.768Z,23.50
2022-12-11T16:16:32.066Z,23.17
2022-12-11T16:18:58.352Z,24.23
2022-12-11T16:21:24.597Z,23.13
2022-12-11T16:23:50.959Z,23.42
2022-12-11T16:26:17.264Z,24.30
2022-12-11T16:28:43.773Z,19.95
2022-12-11T16:31:11.067Z,24.00
2022-12-11T16:33:37.370Z,24.27
2022-12-11T16:36:11.750Z,25.50
2022-12-11T16:38:38.047Z,24.65
2022-12-11T16:41:04.395Z,24.85
2022-12-11T16:43:31.999Z,25.85
2022-12-11T16:45:58.323Z,23.98
2022-12-11T16:48:24.697Z,28.45
2022-12-11T16:50:54.442Z,26.40
2022-12-11T16:53:21.013Z,40.75
2022-12-11T16:55:47.398Z,28.13
2022-12-11T16:58:19.817Z,24.17
2022-12-11T17:00:46.634Z,23.75
2022-12-11T17:03:13.166Z,23.65
2022-12-11T17:05:40.314Z,23.38
2022-12-11T17:08:07.027Z,21.38
2022-12-11T17:10:33.401Z,23.30
2022-12-11T17:13:00.190Z,21.70
2022-12-11T17:15:26.418Z,22.88
2022-12-11T17:17:52.653Z,21.40
2022-12-11T17:20:20.050Z,22.20
2022-12-11T17:22:46.358Z,46.38
2022-12-11T17:25:14.544Z,24.50
2022-12-11T17:27:40.933Z,22.58
2022-12-11T17:30:07.575Z,21.40
2022-12-11T17:32:33.919Z,20.98
2022-12-11T17:35:00.209Z,19.95
2022-12-11T17:37:26.505Z,18.35
2022-12-11T17:39:52.750Z,20.73
2022-12-11T17:42:19.022Z,20.80
2022-12-11T17:44:45.521Z,21.75
2022-12-11T17:47:12.124Z,22.13
2022-12-11T17:49:41.353Z,21.88
2022-12-11T17:52:07.748Z,21.77
2022-12-11T17:54:34.906Z,21.83
2022-12-11T17:57:01.555Z,23.80
2022-12-11T17:59:27.785Z,26.67
2022-12-11T18:01:54.126Z,28.25
2022-12-11T18:04:20.397Z,29.27
2022-12-11T18:06:46.685Z,29.50
2022-12-11T18:09:12.959Z,26.48
2022-12-11T18:11:39.292Z,23.13
2022-12-11T18:14:05.609Z,30.40
2022-12-11T18:16:33.572Z,28.27
2022-12-11T18:19:00.169Z,25.98
2022-12-11T18:21:30.698Z,21.13
2022-12-11T18:23:57.218Z,17.85
2022-12-11T18:26:23.579Z,19.02
2022-12-11T18:28:50.735Z,20.08
2022-12-11T18:31:18.097Z,22.02
2022-12-11T18:33:45.042Z,17.05
2022-12-11T18:36:12.312Z,24.67
2022-12-11T18:38:38.782Z,18.58
2022-12-11T18:41:05.697Z,17.45
2022-12-11T18:43:32.353Z,19.90
2022-12-11T18:45:58.623Z,20.55
2022-12-11T18:48:24.922Z,17.70
2022-12-11T18:50:51.741Z,27.02
2022-12-11T18:53:18.706Z,18.23
2022-12-11T18:55:46.317Z,17.35
2022-12-11T18:58:13.670Z,15.98
2022-12-11T19:00:41.019Z,16.02
2022-12-11T19:03:07.866Z,15.32
2022-12-11T19:05:34.446Z,17.38
2022-12-11T19:08:01.200Z,18.10
2022-12-11T19:10:27.678Z,21.80
2022-12-11T19:12:54.128Z,17.55
2022-12-11T19:15:23.729Z,16.80
2022-12-11T19:17:50.470Z,20.98
2022-12-11T19:20:47.542Z,17.13
2022-12-11T19:23:03.327Z,17.42
2022-12-11T19:25:29.626Z,18.20
2022-12-11T19:27:57.034Z,17.98
2022-12-11T19:30:23.662Z,18.08
2022-12-11T19:32:49.911Z,19.65
2022-12-11T19:35:17.614Z,17.60
2022-12-11T19:37:43.890Z,17.08
2022-12-11T19:40:10.381Z,16.20
2022-12-11T19:42:36.616Z,18.35
2022-12-11T19:45:03.103Z,19.23
2022-12-11T19:47:29.386Z,18.98
2022-12-11T19:49:56.527Z,18.55
2022-12-11T19:52:22.816Z,21.55
2022-12-11T19:54:49.106Z,17.50
2022-12-11T19:57:15.373Z,20.23
2022-12-11T19:59:41.660Z,17.83
2022-12-11T20:02:09.894Z,18.38
2022-12-11T20:04:36.362Z,18.52
2022-12-11T20:07:02.616Z,19.05
2022-12-11T20:09:28.915Z,19.75
2022-12-11T20:11:55.161Z,20.17
2022-12-11T20:14:23.440Z,22.70
2022-12-11T20:19:36.954Z,22.10
2022-12-11T20:22:03.522Z,20.98
2022-12-11T20:24:29.994Z,19.50
2022-12-11T20:26:57.190Z,18.98
2022-12-11T20:29:23.835Z,20.40
2022-12-11T20:31:50.937Z,19.08
2022-12-11T20:34:17.395Z,19.98
2022-12-11T20:36:44.181Z,19.65
2022-12-11T20:39:10.549Z,20.52
2022-12-11T20:41:36.789Z,18.58
2022-12-11T20:44:03.118Z,21.15
2022-12-11T20:46:29.502Z,20.40
2022-12-11T20:48:58.404Z,18.23
2022-12-11T20:51:26.600Z,16.63
2022-12-11T20:53:58.227Z,18.80
2022-12-11T20:56:25.889Z,18.38
2022-12-11T20:58:52.213Z,21.75
2022-12-11T21:01:20.194Z,20.58
2022-12-11T21:03:46.864Z,22.83
2022-12-11T21:06:25.291Z,20.50
2022-12-11T21:08:52.475Z,20.00
2022-12-11T21:11:19.285Z,20.42
2022-12-11T21:13:45.627Z,19.77
2022-12-11T21:16:12.074Z,21.10
2022-12-11T21:18:39.639Z,20.40
2022-12-11T21:21:06.344Z,19.98
2022-12-11T21:23:32.848Z,21.23
2022-12-11T21:25:59.113Z,21.15
2022-12-11T21:28:27.320Z,21.17
2022-12-11T21:31:01.105Z,22.80
2022-12-11T21:33:27.626Z,18.88
2022-12-11T21:35:55.459Z,19.77
2022-12-11T21:38:21.741Z,19.30
2022-12-11T21:40:47.998Z,18.85
2022-12-11T21:43:15.130Z,19.30
2022-12-11T21:46:11.313Z,17.60
2022-12-11T21:48:27.683Z,17.77
2022-12-11T21:50:54.510Z,19.50
2022-12-11T21:53:20.894Z,19.40
2022-12-11T21:55:47.184Z,19.35
2022-12-11T21:58:13.486Z,17.73
2022-12-11T22:00:39.711Z,17.15
2022-12-11T22:03:06.210Z,16.15
2022-12-11T22:05:32.580Z,17.70
2022-12-11T22:07:58.932Z,16.63
2022-12-11T22:10:25.275Z,17.85
2022-12-11T22:12:51.643Z,17.08
2022-12-11T22:15:17.947Z,17.48
2022-12-11T22:17:44.166Z,17.77
2022-12-11T22:20:11.361Z,16.70
2022-12-11T22:22:37.661Z,17.92
2022-12-11T22:25:06.902Z,18.50
2022-12-11T22:27:33.458Z,18.45
2022-12-11T22:29:59.930Z,18.45
2022-12-11T22:32:27.393Z,18.42
2022-12-11T22:34:53.862Z,19.67
2022-12-11T22:37:20.102Z,19.58
2022-12-11T22:39:46.462Z,18.35
2022-12-11T22:42:12.770Z,19.05
2022-12-11T22:44:39.337Z,18.65
2022-12-11T22:47:05.621Z,18.50
2022-12-11T22:49:31.914Z,18.58
2022-12-11T22:51:58.422Z,19.27
2022-12-11T22:54:24.836Z,18.83
2022-12-11T22:56:51.118Z,18.40
2022-12-11T22:59:17.405Z,18.65
2022-12-11T23:01:43.871Z,19.13
2022-12-11T23:04:10.224Z,17.83
2022-12-11T23:06:36.510Z,19.10
2022-12-11T23:09:03.279Z,19.55
2022-12-11T23:11:31.345Z,18.92
2022-12-11T23:13:57.638Z,18.83
2022-12-11T23:16:25.307Z,17.88
2022-12-11T23:18:51.651Z,19.33
2022-12-11T23:21:17.937Z,17.55
2022-12-11T23:23:44.282Z,18.05
2022-12-11T23:26:11.933Z,18.45
2022-12-11T23:28:38.666Z,18.08
2022-12-11T23:31:05.027Z,18.48
2022-12-11T23:33:31.293Z,18.70
2022-12-11T23:35:57.985Z,18.98
2022-12-11T23:38:24.671Z,18.42
2022-12-11T23:40:51.203Z,18.23
2022-12-11T23:43:17.590Z,19.40
2022-12-11T23:45:44.731Z,19.13
2022-12-11T23:48:12.493Z,21.13
2022-12-11T23:50:39.607Z,20.73
2022-12-11T23:53:06.008Z,20.00
2022-12-11T23:55:32.245Z,20.65
2022-12-11T23:57:58.544Z,20.45
